sensor_id;sensor_type;location;lat;lon;timestamp;P1;durP1;ratioP1;P2;durP2;ratioP2
8803;SDS011;4438;50.890;4.726;2023-05-14T00:01:49;46.07;;;39.70;;
8803;SDS011;4438;50.890;4.726;2023-05-14T00:04:16;48.17;;;40.57;;
8803;SDS011;4438;50.890;4.726;2023-05-14T00:06:43;49.17;;;42.30;;
8803;SDS011;4438;50.890;4.726;2023-05-14T00:09:10;50.50;;;40.87;;
8803;SDS011;4438;50.890;4.726;2023-05-14T00:11:36;45.27;;;40.03;;
8803;SDS011;4438;50.890;4.726;2023-05-14T00:14:02;47.03;;;41.93;;
8803;SDS011;4438;50.890;4.726;2023-05-14T00:16:28;50.00;;;41.07;;
8803;SDS011;4438;50.890;4.726;2023-05-14T00:18:54;45.37;;;40.40;;
8803;SDS011;4438;50.890;4.726;2023-05-14T00:21:20;47.30;;;40.40;;
8803;SDS011;4438;50.890;4.726;2023-05-14T00:23:46;47.00;;;41.90;;
8803;SDS011;4438;50.890;4.726;2023-05-14T00:26:13;48.50;;;42.67;;
8803;SDS011;4438;50.890;4.726;2023-05-14T00:28:39;46.73;;;40.10;;
8803;SDS011;4438;50.890;4.726;2023-05-14T00:31:05;48.77;;;42.10;;
8803;SDS011;4438;50.890;4.726;2023-05-14T00:33:31;49.13;;;41.07;;
8803;SDS011;4438;50.890;4.726;2023-05-14T00:35:57;47.40;;;42.30;;
8803;SDS011;4438;50.890;4.726;2023-05-14T00:38:23;48.90;;;42.47;;
8803;SDS011;4438;50.890;4.726;2023-05-14T00:40:51;49.67;;;40.70;;
8803;SDS011;4438;50.890;4.726;2023-05-14T00:43:18;49.27;;;43.10;;
8803;SDS011;4438;50.890;4.726;2023-05-14T00:45:44;50.20;;;44.27;;
8803;SDS011;4438;50.890;4.726;2023-05-14T00:48:11;49.27;;;43.33;;
8803;SDS011;4438;50.890;4.726;2023-05-14T00:50:37;45.90;;;40.00;;
8803;SDS011;4438;50.890;4.726;2023-05-14T00:53:03;53.13;;;45.67;;
8803;SDS011;4438;50.890;4.726;2023-05-14T00:55:34;56.53;;;45.70;;
8803;SDS011;4438;50.890;4.726;2023-05-14T00:58:00;53.50;;;45.50;;
8803;SDS011;4438;50.890;4.726;2023-05-14T01:00:27;51.93;;;44.70;;
8803;SDS011;4438;50.890;4.726;2023-05-14T01:02:53;51.90;;;44.37;;
8803;SDS011;4438;50.890;4.726;2023-05-14T01:05:19;52.90;;;46.00;;
8803;SDS011;4438;50.890;4.726;2023-05-14T01:10:18;55.13;;;45.50;;
8803;SDS011;4438;50.890;4.726;2023-05-14T01:12:46;54.17;;;45.70;;
8803;SDS011;4438;50.890;4.726;2023-05-14T01:15:20;54.77;;;45.33;;
8803;SDS011;4438;50.890;4.726;2023-05-14T01:17:53;52.73;;;44.83;;
8803;SDS011;4438;50.890;4.726;2023-05-14T01:20:20;59.93;;;46.37;;
8803;SDS011;4438;50.890;4.726;2023-05-14T01:22:46;54.03;;;46.67;;
8803;SDS011;4438;50.890;4.726;2023-05-14T01:25:12;60.30;;;48.10;;
8803;SDS011;4438;50.890;4.726;2023-05-14T01:27:48;57.50;;;48.10;;
8803;SDS011;4438;50.890;4.726;2023-05-14T01:30:22;54.43;;;46.17;;
8803;SDS011;4438;50.890;4.726;2023-05-14T01:32:52;59.97;;;49.67;;
8803;SDS011;4438;50.890;4.726;2023-05-14T01:35:20;66.97;;;51.67;;
8803;SDS011;4438;50.890;4.726;2023-05-14T01:37:47;59.83;;;49.30;;
8803;SDS011;4438;50.890;4.726;2023-05-14T01:40:13;60.97;;;49.37;;
8803;SDS011;4438;50.890;4.726;2023-05-14T01:42:40;69.00;;;54.10;;
8803;SDS011;4438;50.890;4.726;2023-05-14T01:45:06;63.23;;;50.90;;
8803;SDS011;4438;50.890;4.726;2023-05-14T01:47:32;60.70;;;49.83;;
8803;SDS011;4438;50.890;4.726;2023-05-14T01:49:59;61.93;;;50.57;;
8803;SDS011;4438;50.890;4.726;2023-05-14T01:52:25;62.70;;;52.20;;
8803;SDS011;4438;50.890;4.726;2023-05-14T01:54:51;63.53;;;51.63;;
8803;SDS011;4438;50.890;4.726;2023-05-14T01:57:17;64.30;;;50.87;;
8803;SDS011;4438;50.890;4.726;2023-05-14T01:59:43;62.23;;;50.33;;
8803;SDS011;4438;50.890;4.726;2023-05-14T02:02:09;60.50;;;49.27;;
8803;SDS011;4438;50.890;4.726;2023-05-14T02:04:35;60.47;;;49.27;;
8803;SDS011;4438;50.890;4.726;2023-05-14T02:07:01;69.53;;;50.50;;
8803;SDS011;4438;50.890;4.726;2023-05-14T02:09:27;68.77;;;53.40;;
8803;SDS011;4438;50.890;4.726;2023-05-14T02:11:54;63.40;;;51.80;;
8803;SDS011;4438;50.890;4.726;2023-05-14T02:14:20;63.37;;;53.03;;
8803;SDS011;4438;50.890;4.726;2023-05-14T02:16:46;72.57;;;54.40;;
8803;SDS011;4438;50.890;4.726;2023-05-14T02:19:13;68.53;;;52.97;;
8803;SDS011;4438;50.890;4.726;2023-05-14T02:21:39;70.60;;;55.03;;
8803;SDS011;4438;50.890;4.726;2023-05-14T02:24:05;69.33;;;54.47;;
8803;SDS011;4438;50.890;4.726;2023-05-14T02:26:31;68.47;;;54.53;;
8803;SDS011;4438;50.890;4.726;2023-05-14T02:28:57;71.70;;;55.83;;
8803;SDS011;4438;50.890;4.726;2023-05-14T02:31:23;69.43;;;54.03;;
8803;SDS011;4438;50.890;4.726;2023-05-14T02:33:49;71.67;;;54.50;;
8803;SDS011;4438;50.890;4.726;2023-05-14T02:36:15;73.97;;;56.07;;
8803;SDS011;4438;50.890;4.726;2023-05-14T02:38:41;74.07;;;56.17;;
8803;SDS011;4438;50.890;4.726;2023-05-14T02:41:07;74.70;;;57.33;;
8803;SDS011;4438;50.890;4.726;2023-05-14T02:43:33;72.27;;;55.10;;
8803;SDS011;4438;50.890;4.726;2023-05-14T02:46:00;72.40;;;56.00;;
8803;SDS011;4438;50.890;4.726;2023-05-14T02:48:26;72.07;;;54.80;;
8803;SDS011;4438;50.890;4.726;2023-05-14T02:50:52;76.70;;;56.40;;
8803;SDS011;4438;50.890;4.726;2023-05-14T02:53:18;70.87;;;54.70;;
8803;SDS011;4438;50.890;4.726;2023-05-14T02:55:44;71.30;;;52.80;;
8803;SDS011;4438;50.890;4.726;2023-05-14T02:58:10;71.73;;;55.13;;
8803;SDS011;4438;50.890;4.726;2023-05-14T03:00:36;71.93;;;54.93;;
8803;SDS011;4438;50.890;4.726;2023-05-14T03:03:02;78.90;;;55.63;;
8803;SDS011;4438;50.890;4.726;2023-05-14T03:05:28;72.10;;;55.83;;
8803;SDS011;4438;50.890;4.726;2023-05-14T03:07:54;75.10;;;56.00;;
8803;SDS011;4438;50.890;4.726;2023-05-14T03:10:20;71.77;;;54.17;;
8803;SDS011;4438;50.890;4.726;2023-05-14T03:12:46;80.07;;;54.97;;
8803;SDS011;4438;50.890;4.726;2023-05-14T03:15:13;75.77;;;55.37;;
8803;SDS011;4438;50.890;4.726;2023-05-14T03:17:39;73.13;;;54.30;;
8803;SDS011;4438;50.890;4.726;2023-05-14T03:20:05;77.00;;;54.03;;
8803;SDS011;4438;50.890;4.726;2023-05-14T03:22:31;74.23;;;53.93;;
8803;SDS011;4438;50.890;4.726;2023-05-14T03:24:57;68.00;;;53.20;;
8803;SDS011;4438;50.890;4.726;2023-05-14T03:27:24;75.17;;;56.40;;
8803;SDS011;4438;50.890;4.726;2023-05-14T03:29:50;71.57;;;53.33;;
8803;SDS011;4438;50.890;4.726;2023-05-14T03:32:16;76.10;;;54.30;;
8803;SDS011;4438;50.890;4.726;2023-05-14T03:34:42;71.30;;;53.47;;
8803;SDS011;4438;50.890;4.726;2023-05-14T03:37:09;70.43;;;53.47;;
8803;SDS011;4438;50.890;4.726;2023-05-14T03:39:35;79.30;;;55.40;;
8803;SDS011;4438;50.890;4.726;2023-05-14T03:42:01;72.17;;;53.30;;
8803;SDS011;4438;50.890;4.726;2023-05-14T03:44:27;72.37;;;53.73;;
8803;SDS011;4438;50.890;4.726;2023-05-14T03:46:53;71.83;;;53.70;;
8803;SDS011;4438;50.890;4.726;2023-05-14T03:49:19;69.20;;;52.47;;
8803;SDS011;4438;50.890;4.726;2023-05-14T03:51:46;73.03;;;54.00;;
8803;SDS011;4438;50.890;4.726;2023-05-14T03:54:12;76.00;;;54.90;;
8803;SDS011;4438;50.890;4.726;2023-05-14T03:56:38;74.77;;;53.90;;
8803;SDS011;4438;50.890;4.726;2023-05-14T03:59:04;69.67;;;52.10;;
8803;SDS011;4438;50.890;4.726;2023-05-14T04:01:30;70.87;;;53.33;;
8803;SDS011;4438;50.890;4.726;2023-05-14T04:03:56;66.13;;;51.60;;
8803;SDS011;4438;50.890;4.726;2023-05-14T04:06:22;74.27;;;54.17;;
8803;SDS011;4438;50.890;4.726;2023-05-14T04:08:48;70.83;;;53.17;;
8803;SDS011;4438;50.890;4.726;2023-05-14T04:11:15;73.83;;;54.70;;
8803;SDS011;4438;50.890;4.726;2023-05-14T04:13:41;67.70;;;52.10;;
8803;SDS011;4438;50.890;4.726;2023-05-14T04:16:07;73.43;;;52.60;;
8803;SDS011;4438;50.890;4.726;2023-05-14T04:18:33;73.57;;;53.27;;
8803;SDS011;4438;50.890;4.726;2023-05-14T04:21:00;73.57;;;53.40;;
8803;SDS011;4438;50.890;4.726;2023-05-14T04:23:26;70.50;;;52.57;;
8803;SDS011;4438;50.890;4.726;2023-05-14T04:25:52;72.67;;;53.40;;
8803;SDS011;4438;50.890;4.726;2023-05-14T04:28:18;79.17;;;53.87;;
8803;SDS011;4438;50.890;4.726;2023-05-14T04:30:44;78.60;;;54.50;;
8803;SDS011;4438;50.890;4.726;2023-05-14T04:33:10;72.83;;;52.77;;
8803;SDS011;4438;50.890;4.726;2023-05-14T04:35:36;74.27;;;52.50;;
8803;SDS011;4438;50.890;4.726;2023-05-14T04:38:02;71.27;;;51.17;;
8803;SDS011;4438;50.890;4.726;2023-05-14T04:40:28;74.03;;;52.43;;
8803;SDS011;4438;50.890;4.726;2023-05-14T04:42:55;70.87;;;50.97;;
8803;SDS011;4438;50.890;4.726;2023-05-14T04:45:21;70.33;;;50.00;;
8803;SDS011;4438;50.890;4.726;2023-05-14T04:47:47;76.17;;;52.23;;
8803;SDS011;4438;50.890;4.726;2023-05-14T04:50:14;70.93;;;50.20;;
8803;SDS011;4438;50.890;4.726;2023-05-14T04:52:40;72.83;;;51.20;;
8803;SDS011;4438;50.890;4.726;2023-05-14T04:55:06;63.63;;;49.20;;
8803;SDS011;4438;50.890;4.726;2023-05-14T04:57:33;69.03;;;51.27;;
8803;SDS011;4438;50.890;4.726;2023-05-14T04:59:59;66.63;;;48.87;;
8803;SDS011;4438;50.890;4.726;2023-05-14T05:02:25;71.03;;;49.13;;
8803;SDS011;4438;50.890;4.726;2023-05-14T05:04:51;65.17;;;49.07;;
8803;SDS011;4438;50.890;4.726;2023-05-14T05:07:17;71.07;;;49.67;;
8803;SDS011;4438;50.890;4.726;2023-05-14T05:09:43;68.57;;;49.00;;
8803;SDS011;4438;50.890;4.726;2023-05-14T05:12:09;66.20;;;47.73;;
8803;SDS011;4438;50.890;4.726;2023-05-14T05:14:36;64.60;;;48.03;;
8803;SDS011;4438;50.890;4.726;2023-05-14T05:17:02;65.70;;;47.83;;
8803;SDS011;4438;50.890;4.726;2023-05-14T05:19:28;71.27;;;49.20;;
8803;SDS011;4438;50.890;4.726;2023-05-14T05:21:54;61.23;;;46.87;;
8803;SDS011;4438;50.890;4.726;2023-05-14T05:24:20;69.20;;;47.73;;
8803;SDS011;4438;50.890;4.726;2023-05-14T05:26:46;68.40;;;48.03;;
8803;SDS011;4438;50.890;4.726;2023-05-14T05:29:14;65.87;;;47.07;;
8803;SDS011;4438;50.890;4.726;2023-05-14T05:31:40;62.30;;;44.97;;
8803;SDS011;4438;50.890;4.726;2023-05-14T05:34:06;62.90;;;45.27;;
8803;SDS011;4438;50.890;4.726;2023-05-14T05:36:32;67.43;;;47.33;;
8803;SDS011;4438;50.890;4.726;2023-05-14T05:38:58;64.10;;;46.70;;
8803;SDS011;4438;50.890;4.726;2023-05-14T05:41:24;58.37;;;44.13;;
8803;SDS011;4438;50.890;4.726;2023-05-14T05:43:51;61.17;;;44.97;;
8803;SDS011;4438;50.890;4.726;2023-05-14T05:46:17;62.13;;;46.73;;
8803;SDS011;4438;50.890;4.726;2023-05-14T05:48:43;55.20;;;44.53;;
8803;SDS011;4438;50.890;4.726;2023-05-14T05:51:09;61.67;;;45.93;;
8803;SDS011;4438;50.890;4.726;2023-05-14T05:53:36;59.93;;;44.40;;
8803;SDS011;4438;50.890;4.726;2023-05-14T05:56:02;60.03;;;44.87;;
8803;SDS011;4438;50.890;4.726;2023-05-14T05:58:28;60.77;;;45.60;;
8803;SDS011;4438;50.890;4.726;2023-05-14T06:00:54;60.40;;;45.03;;
8803;SDS011;4438;50.890;4.726;2023-05-14T06:03:21;57.80;;;43.13;;
8803;SDS011;4438;50.890;4.726;2023-05-14T06:05:47;53.63;;;42.10;;
8803;SDS011;4438;50.890;4.726;2023-05-14T06:08:13;60.83;;;45.33;;
8803;SDS011;4438;50.890;4.726;2023-05-14T06:10:40;59.23;;;44.13;;
8803;SDS011;4438;50.890;4.726;2023-05-14T06:13:06;61.47;;;45.40;;
8803;SDS011;4438;50.890;4.726;2023-05-14T06:15:32;54.83;;;43.23;;
8803;SDS011;4438;50.890;4.726;2023-05-14T06:17:58;61.03;;;43.50;;
8803;SDS011;4438;50.890;4.726;2023-05-14T06:20:24;56.13;;;44.17;;
8803;SDS011;4438;50.890;4.726;2023-05-14T06:22:50;60.00;;;42.43;;
8803;SDS011;4438;50.890;4.726;2023-05-14T06:25:16;55.53;;;42.67;;
8803;SDS011;4438;50.890;4.726;2023-05-14T06:27:43;54.80;;;42.43;;
8803;SDS011;4438;50.890;4.726;2023-05-14T06:30:09;55.10;;;41.20;;
8803;SDS011;4438;50.890;4.726;2023-05-14T06:32:35;53.17;;;41.83;;
8803;SDS011;4438;50.890;4.726;2023-05-14T06:35:02;55.17;;;42.50;;
8803;SDS011;4438;50.890;4.726;2023-05-14T06:37:28;59.73;;;44.27;;
8803;SDS011;4438;50.890;4.726;2023-05-14T06:39:54;53.93;;;40.33;;
8803;SDS011;4438;50.890;4.726;2023-05-14T06:42:20;52.73;;;40.60;;
8803;SDS011;4438;50.890;4.726;2023-05-14T06:44:46;45.60;;;37.63;;
8803;SDS011;4438;50.890;4.726;2023-05-14T06:47:12;50.17;;;39.50;;
8803;SDS011;4438;50.890;4.726;2023-05-14T06:49:38;48.37;;;38.83;;
8803;SDS011;4438;50.890;4.726;2023-05-14T06:52:05;48.57;;;36.97;;
8803;SDS011;4438;50.890;4.726;2023-05-14T06:54:31;49.17;;;37.60;;
8803;SDS011;4438;50.890;4.726;2023-05-14T06:56:57;43.83;;;35.60;;
8803;SDS011;4438;50.890;4.726;2023-05-14T06:59:23;51.97;;;37.80;;
8803;SDS011;4438;50.890;4.726;2023-05-14T07:01:49;48.03;;;37.53;;
8803;SDS011;4438;50.890;4.726;2023-05-14T07:04:15;49.20;;;37.63;;
8803;SDS011;4438;50.890;4.726;2023-05-14T07:06:41;51.67;;;38.43;;
8803;SDS011;4438;50.890;4.726;2023-05-14T07:09:07;48.10;;;38.43;;
8803;SDS011;4438;50.890;4.726;2023-05-14T07:11:34;49.67;;;37.87;;
8803;SDS011;4438;50.890;4.726;2023-05-14T07:14:00;56.13;;;39.93;;
8803;SDS011;4438;50.890;4.726;2023-05-14T07:16:26;50.97;;;38.10;;
8803;SDS011;4438;50.890;4.726;2023-05-14T07:18:53;52.10;;;38.53;;
8803;SDS011;4438;50.890;4.726;2023-05-14T07:21:19;48.77;;;37.80;;
8803;SDS011;4438;50.890;4.726;2023-05-14T07:23:45;53.00;;;38.47;;
8803;SDS011;4438;50.890;4.726;2023-05-14T07:26:11;47.37;;;37.67;;
8803;SDS011;4438;50.890;4.726;2023-05-14T07:28:37;50.00;;;39.00;;
8803;SDS011;4438;50.890;4.726;2023-05-14T07:31:03;50.87;;;39.37;;
8803;SDS011;4438;50.890;4.726;2023-05-14T07:33:33;52.07;;;38.80;;
8803;SDS011;4438;50.890;4.726;2023-05-14T07:35:59;53.23;;;41.23;;
8803;SDS011;4438;50.890;4.726;2023-05-14T07:38:25;52.77;;;40.00;;
8803;SDS011;4438;50.890;4.726;2023-05-14T07:40:52;55.03;;;41.30;;
8803;SDS011;4438;50.890;4.726;2023-05-14T07:43:18;51.90;;;40.27;;
8803;SDS011;4438;50.890;4.726;2023-05-14T07:45:44;52.57;;;39.57;;
8803;SDS011;4438;50.890;4.726;2023-05-14T07:48:10;53.00;;;39.53;;
8803;SDS011;4438;50.890;4.726;2023-05-14T07:50:36;54.43;;;40.83;;
8803;SDS011;4438;50.890;4.726;2023-05-14T07:53:02;53.87;;;41.13;;
8803;SDS011;4438;50.890;4.726;2023-05-14T07:55:28;51.50;;;39.10;;
8803;SDS011;4438;50.890;4.726;2023-05-14T07:57:55;53.47;;;40.13;;
8803;SDS011;4438;50.890;4.726;2023-05-14T08:00:21;53.83;;;40.73;;
8803;SDS011;4438;50.890;4.726;2023-05-14T08:02:47;50.77;;;39.77;;
8803;SDS011;4438;50.890;4.726;2023-05-14T08:05:14;49.13;;;39.43;;
8803;SDS011;4438;50.890;4.726;2023-05-14T08:07:40;49.67;;;39.33;;
8803;SDS011;4438;50.890;4.726;2023-05-14T08:10:07;54.90;;;39.80;;
8803;SDS011;4438;50.890;4.726;2023-05-14T08:12:33;49.70;;;39.13;;
8803;SDS011;4438;50.890;4.726;2023-05-14T08:15:00;51.70;;;40.13;;
8803;SDS011;4438;50.890;4.726;2023-05-14T08:17:26;52.40;;;39.87;;
8803;SDS011;4438;50.890;4.726;2023-05-14T08:19:52;51.53;;;40.67;;
8803;SDS011;4438;50.890;4.726;2023-05-14T08:22:19;49.90;;;37.67;;
8803;SDS011;4438;50.890;4.726;2023-05-14T08:24:45;49.23;;;38.63;;
8803;SDS011;4438;50.890;4.726;2023-05-14T08:27:11;51.97;;;38.87;;
8803;SDS011;4438;50.890;4.726;2023-05-14T08:29:38;50.17;;;39.93;;
8803;SDS011;4438;50.890;4.726;2023-05-14T08:32:04;50.73;;;38.53;;
8803;SDS011;4438;50.890;4.726;2023-05-14T08:34:30;48.30;;;39.70;;
8803;SDS011;4438;50.890;4.726;2023-05-14T08:36:56;50.90;;;41.07;;
8803;SDS011;4438;50.890;4.726;2023-05-14T08:39:23;48.60;;;39.53;;
8803;SDS011;4438;50.890;4.726;2023-05-14T08:41:49;50.03;;;40.37;;
8803;SDS011;4438;50.890;4.726;2023-05-14T08:44:20;49.67;;;41.00;;
8803;SDS011;4438;50.890;4.726;2023-05-14T08:46:50;51.83;;;40.77;;
8803;SDS011;4438;50.890;4.726;2023-05-14T08:51:45;51.73;;;40.63;;
8803;SDS011;4438;50.890;4.726;2023-05-14T08:54:14;48.00;;;40.93;;
8803;SDS011;4438;50.890;4.726;2023-05-14T08:56:42;52.60;;;42.13;;
8803;SDS011;4438;50.890;4.726;2023-05-14T08:59:10;46.30;;;39.60;;
8803;SDS011;4438;50.890;4.726;2023-05-14T09:01:36;51.87;;;42.40;;
8803;SDS011;4438;50.890;4.726;2023-05-14T09:04:03;51.90;;;41.87;;
8803;SDS011;4438;50.890;4.726;2023-05-14T09:06:34;48.90;;;40.90;;
8803;SDS011;4438;50.890;4.726;2023-05-14T09:09:04;47.47;;;40.67;;
8803;SDS011;4438;50.890;4.726;2023-05-14T09:11:31;44.50;;;39.70;;
8803;SDS011;4438;50.890;4.726;2023-05-14T09:13:57;47.43;;;41.27;;
8803;SDS011;4438;50.890;4.726;2023-05-14T09:16:23;44.60;;;39.70;;
8803;SDS011;4438;50.890;4.726;2023-05-14T09:18:50;49.53;;;41.33;;
8803;SDS011;4438;50.890;4.726;2023-05-14T09:21:17;48.03;;;40.17;;
8803;SDS011;4438;50.890;4.726;2023-05-14T09:23:43;45.63;;;39.97;;
8803;SDS011;4438;50.890;4.726;2023-05-14T09:26:10;44.67;;;39.70;;
8803;SDS011;4438;50.890;4.726;2023-05-14T09:28:39;46.97;;;40.73;;
8803;SDS011;4438;50.890;4.726;2023-05-14T09:31:06;48.67;;;40.70;;
8803;SDS011;4438;50.890;4.726;2023-05-14T09:33:32;43.30;;;38.63;;
8803;SDS011;4438;50.890;4.726;2023-05-14T09:35:58;44.63;;;39.03;;
8803;SDS011;4438;50.890;4.726;2023-05-14T09:38:28;46.00;;;40.77;;
8803;SDS011;4438;50.890;4.726;2023-05-14T09:40:55;47.17;;;40.03;;
8803;SDS011;4438;50.890;4.726;2023-05-14T09:43:21;42.67;;;38.03;;
8803;SDS011;4438;50.890;4.726;2023-05-14T09:45:47;45.47;;;38.53;;
8803;SDS011;4438;50.890;4.726;2023-05-14T09:48:13;42.83;;;38.13;;
8803;SDS011;4438;50.890;4.726;2023-05-14T09:50:43;46.30;;;39.17;;
8803;SDS011;4438;50.890;4.726;2023-05-14T09:53:10;44.57;;;39.30;;
8803;SDS011;4438;50.890;4.726;2023-05-14T09:55:36;43.10;;;38.50;;
8803;SDS011;4438;50.890;4.726;2023-05-14T09:58:03;45.47;;;40.67;;
8803;SDS011;4438;50.890;4.726;2023-05-14T10:00:32;42.40;;;38.00;;
8803;SDS011;4438;50.890;4.726;2023-05-14T10:02:58;42.23;;;37.87;;
8803;SDS011;4438;50.890;4.726;2023-05-14T10:05:27;41.67;;;37.27;;
8803;SDS011;4438;50.890;4.726;2023-05-14T10:07:53;40.70;;;36.47;;
8803;SDS011;4438;50.890;4.726;2023-05-14T10:10:22;43.40;;;39.03;;
8803;SDS011;4438;50.890;4.726;2023-05-14T10:12:54;39.87;;;35.70;;
8803;SDS011;4438;50.890;4.726;2023-05-14T10:15:23;40.77;;;36.50;;
8803;SDS011;4438;50.890;4.726;2023-05-14T10:17:54;40.97;;;36.80;;
8803;SDS011;4438;50.890;4.726;2023-05-14T10:20:21;41.93;;;37.53;;
8803;SDS011;4438;50.890;4.726;2023-05-14T10:22:48;43.00;;;38.53;;
8803;SDS011;4438;50.890;4.726;2023-05-14T10:25:14;40.77;;;36.57;;
8803;SDS011;4438;50.890;4.726;2023-05-14T10:27:41;42.47;;;37.90;;
8803;SDS011;4438;50.890;4.726;2023-05-14T10:30:10;41.70;;;37.60;;
8803;SDS011;4438;50.890;4.726;2023-05-14T10:32:36;40.87;;;36.63;;
8803;SDS011;4438;50.890;4.726;2023-05-14T10:35:14;42.23;;;37.63;;
8803;SDS011;4438;50.890;4.726;2023-05-14T10:37:40;40.93;;;36.60;;
8803;SDS011;4438;50.890;4.726;2023-05-14T10:40:06;40.10;;;35.93;;
8803;SDS011;4438;50.890;4.726;2023-05-14T10:42:34;42.17;;;37.97;;
8803;SDS011;4438;50.890;4.726;2023-05-14T10:47:31;40.80;;;36.67;;
8803;SDS011;4438;50.890;4.726;2023-05-14T10:49:58;43.07;;;38.47;;
8803;SDS011;4438;50.890;4.726;2023-05-14T10:52:25;41.30;;;37.10;;
8803;SDS011;4438;50.890;4.726;2023-05-14T10:54:52;41.77;;;37.40;;
8803;SDS011;4438;50.890;4.726;2023-05-14T10:57:19;40.80;;;36.60;;
8803;SDS011;4438;50.890;4.726;2023-05-14T10:59:46;40.90;;;36.60;;
8803;SDS011;4438;50.890;4.726;2023-05-14T11:02:20;39.53;;;35.33;;
8803;SDS011;4438;50.890;4.726;2023-05-14T11:07:34;38.70;;;34.70;;
8803;SDS011;4438;50.890;4.726;2023-05-14T11:10:35;37.80;;;34.00;;
8803;SDS011;4438;50.890;4.726;2023-05-14T11:12:54;39.67;;;35.60;;
8803;SDS011;4438;50.890;4.726;2023-05-14T11:15:22;38.23;;;34.50;;
8803;SDS011;4438;50.890;4.726;2023-05-14T11:17:50;38.63;;;34.60;;
8803;SDS011;4438;50.890;4.726;2023-05-14T11:20:17;34.93;;;31.50;;
8803;SDS011;4438;50.890;4.726;2023-05-14T11:22:43;35.37;;;31.87;;
8803;SDS011;4438;50.890;4.726;2023-05-14T11:25:10;35.47;;;32.07;;
8803;SDS011;4438;50.890;4.726;2023-05-14T11:27:39;36.30;;;32.93;;
8803;SDS011;4438;50.890;4.726;2023-05-14T11:30:26;36.00;;;32.53;;
8803;SDS011;4438;50.890;4.726;2023-05-14T11:32:51;35.80;;;32.23;;
8803;SDS011;4438;50.890;4.726;2023-05-14T11:35:18;35.50;;;32.20;;
8803;SDS011;4438;50.890;4.726;2023-05-14T11:37:50;35.13;;;31.87;;
8803;SDS011;4438;50.890;4.726;2023-05-14T11:40:17;33.47;;;30.27;;
8803;SDS011;4438;50.890;4.726;2023-05-14T11:42:43;33.97;;;30.83;;
8803;SDS011;4438;50.890;4.726;2023-05-14T11:45:10;36.63;;;33.03;;
8803;SDS011;4438;50.890;4.726;2023-05-14T11:47:37;31.63;;;28.77;;
8803;SDS011;4438;50.890;4.726;2023-05-14T11:50:03;35.07;;;31.53;;
8803;SDS011;4438;50.890;4.726;2023-05-14T11:52:29;32.07;;;28.97;;
8803;SDS011;4438;50.890;4.726;2023-05-14T11:54:55;31.77;;;28.77;;
8803;SDS011;4438;50.890;4.726;2023-05-14T11:57:21;32.57;;;29.47;;
8803;SDS011;4438;50.890;4.726;2023-05-14T11:59:48;33.07;;;30.17;;
8803;SDS011;4438;50.890;4.726;2023-05-14T12:02:16;31.00;;;28.20;;
8803;SDS011;4438;50.890;4.726;2023-05-14T12:04:44;32.87;;;29.83;;
8803;SDS011;4438;50.890;4.726;2023-05-14T12:07:14;33.00;;;29.83;;
8803;SDS011;4438;50.890;4.726;2023-05-14T12:09:45;33.80;;;30.30;;
8803;SDS011;4438;50.890;4.726;2023-05-14T12:12:13;34.97;;;31.67;;
8803;SDS011;4438;50.890;4.726;2023-05-14T12:14:40;35.27;;;32.07;;
8803;SDS011;4438;50.890;4.726;2023-05-14T12:17:11;33.90;;;30.70;;
8803;SDS011;4438;50.890;4.726;2023-05-14T12:19:40;29.80;;;27.03;;
8803;SDS011;4438;50.890;4.726;2023-05-14T12:22:07;33.33;;;30.00;;
8803;SDS011;4438;50.890;4.726;2023-05-14T12:24:34;34.07;;;30.87;;
8803;SDS011;4438;50.890;4.726;2023-05-14T12:27:01;34.93;;;31.83;;
8803;SDS011;4438;50.890;4.726;2023-05-14T12:29:27;29.97;;;27.33;;
8803;SDS011;4438;50.890;4.726;2023-05-14T12:31:55;32.20;;;29.33;;
8803;SDS011;4438;50.890;4.726;2023-05-14T12:34:28;29.23;;;26.63;;
8803;SDS011;4438;50.890;4.726;2023-05-14T12:36:54;31.43;;;28.43;;
8803;SDS011;4438;50.890;4.726;2023-05-14T12:39:20;30.27;;;27.67;;
8803;SDS011;4438;50.890;4.726;2023-05-14T12:41:46;30.13;;;27.43;;
8803;SDS011;4438;50.890;4.726;2023-05-14T12:44:12;31.07;;;28.27;;
8803;SDS011;4438;50.890;4.726;2023-05-14T12:46:38;29.70;;;27.10;;
8803;SDS011;4438;50.890;4.726;2023-05-14T12:49:04;29.23;;;26.47;;
8803;SDS011;4438;50.890;4.726;2023-05-14T12:51:31;29.13;;;26.40;;
8803;SDS011;4438;50.890;4.726;2023-05-14T12:53:57;27.23;;;24.80;;
8803;SDS011;4438;50.890;4.726;2023-05-14T12:56:23;28.23;;;25.73;;
8803;SDS011;4438;50.890;4.726;2023-05-14T12:58:55;28.50;;;25.90;;
8803;SDS011;4438;50.890;4.726;2023-05-14T13:01:22;25.30;;;22.87;;
8803;SDS011;4438;50.890;4.726;2023-05-14T13:03:48;23.87;;;21.77;;
8803;SDS011;4438;50.890;4.726;2023-05-14T13:06:15;28.50;;;25.90;;
8803;SDS011;4438;50.890;4.726;2023-05-14T13:08:41;28.53;;;25.83;;
8803;SDS011;4438;50.890;4.726;2023-05-14T13:11:07;26.53;;;24.23;;
8803;SDS011;4438;50.890;4.726;2023-05-14T13:13:33;24.47;;;22.43;;
8803;SDS011;4438;50.890;4.726;2023-05-14T13:15:59;24.77;;;22.67;;
8803;SDS011;4438;50.890;4.726;2023-05-14T13:18:25;24.15;;;22.05;;
8803;SDS011;4438;50.890;4.726;2023-05-14T13:20:52;25.20;;;22.73;;
8803;SDS011;4438;50.890;4.726;2023-05-14T13:23:18;24.95;;;22.88;;
8803;SDS011;4438;50.890;4.726;2023-05-14T13:25:45;24.40;;;22.13;;
8803;SDS011;4438;50.890;4.726;2023-05-14T13:28:11;21.47;;;19.37;;
8803;SDS011;4438;50.890;4.726;2023-05-14T13:30:37;24.40;;;22.08;;
8803;SDS011;4438;50.890;4.726;2023-05-14T13:33:03;21.42;;;19.60;;
8803;SDS011;4438;50.890;4.726;2023-05-14T13:35:30;22.83;;;20.67;;
8803;SDS011;4438;50.890;4.726;2023-05-14T13:37:56;22.13;;;20.13;;
8803;SDS011;4438;50.890;4.726;2023-05-14T13:40:22;23.92;;;21.67;;
8803;SDS011;4438;50.890;4.726;2023-05-14T13:42:48;23.67;;;21.60;;
8803;SDS011;4438;50.890;4.726;2023-05-14T13:45:14;24.40;;;22.10;;
8803;SDS011;4438;50.890;4.726;2023-05-14T13:47:40;22.60;;;20.50;;
8803;SDS011;4438;50.890;4.726;2023-05-14T13:50:06;23.23;;;21.25;;
8803;SDS011;4438;50.890;4.726;2023-05-14T13:52:33;23.10;;;21.00;;
8803;SDS011;4438;50.890;4.726;2023-05-14T13:54:59;21.98;;;20.05;;
8803;SDS011;4438;50.890;4.726;2023-05-14T13:57:25;25.02;;;22.50;;
8803;SDS011;4438;50.890;4.726;2023-05-14T13:59:51;22.27;;;20.27;;
8803;SDS011;4438;50.890;4.726;2023-05-14T14:02:17;22.90;;;21.05;;
8803;SDS011;4438;50.890;4.726;2023-05-14T14:04:43;21.52;;;19.73;;
8803;SDS011;4438;50.890;4.726;2023-05-14T14:07:10;21.85;;;19.95;;
8803;SDS011;4438;50.890;4.726;2023-05-14T14:09:36;19.27;;;17.60;;
8803;SDS011;4438;50.890;4.726;2023-05-14T14:12:02;19.02;;;17.30;;
8803;SDS011;4438;50.890;4.726;2023-05-14T14:14:28;21.60;;;19.63;;
8803;SDS011;4438;50.890;4.726;2023-05-14T14:16:54;22.05;;;20.15;;
8803;SDS011;4438;50.890;4.726;2023-05-14T14:19:20;22.23;;;20.13;;
8803;SDS011;4438;50.890;4.726;2023-05-14T14:21:46;20.35;;;18.55;;
8803;SDS011;4438;50.890;4.726;2023-05-14T14:24:13;20.75;;;18.95;;
8803;SDS011;4438;50.890;4.726;2023-05-14T14:26:39;18.70;;;17.10;;
8803;SDS011;4438;50.890;4.726;2023-05-14T14:29:05;19.00;;;17.20;;
8803;SDS011;4438;50.890;4.726;2023-05-14T14:31:31;19.70;;;18.00;;
8803;SDS011;4438;50.890;4.726;2023-05-14T14:33:57;17.97;;;16.27;;
8803;SDS011;4438;50.890;4.726;2023-05-14T14:36:23;21.47;;;19.47;;
8803;SDS011;4438;50.890;4.726;2023-05-14T14:38:49;20.73;;;18.73;;
8803;SDS011;4438;50.890;4.726;2023-05-14T14:41:15;19.37;;;17.47;;
8803;SDS011;4438;50.890;4.726;2023-05-14T14:43:41;19.77;;;17.93;;
8803;SDS011;4438;50.890;4.726;2023-05-14T14:46:07;18.40;;;16.47;;
8803;SDS011;4438;50.890;4.726;2023-05-14T14:48:34;19.20;;;17.30;;
8803;SDS011;4438;50.890;4.726;2023-05-14T14:51:05;19.20;;;17.40;;
8803;SDS011;4438;50.890;4.726;2023-05-14T14:53:32;17.80;;;16.20;;
8803;SDS011;4438;50.890;4.726;2023-05-14T14:55:58;17.67;;;15.97;;